createdAt,value
2019-02-23T00:00:13.406Z,3.70
2019-02-23T00:02:42.285Z,3.77
2019-02-23T00:05:11.213Z,3.67
2019-02-23T00:07:40.091Z,3.70
2019-02-23T00:10:09.005Z,3.93
2019-02-23T00:12:37.879Z,4.17
2019-02-23T00:15:07.198Z,3.93
2019-02-23T00:17:36.074Z,4.00
2019-02-23T00:20:07.400Z,4.20
2019-02-23T00:22:36.281Z,4.50
2019-02-23T00:25:05.205Z,4.23
2019-02-23T00:27:34.110Z,4.20
2019-02-23T00:30:03.131Z,4.27
2019-02-23T00:32:32.003Z,4.07
2019-02-23T00:35:00.920Z,3.77
2019-02-23T00:37:29.815Z,3.50
2019-02-23T00:39:58.730Z,4.23
2019-02-23T00:42:27.605Z,3.90
2019-02-23T00:44:56.535Z,4.00
2019-02-23T00:47:25.407Z,3.60
2019-02-23T00:49:54.321Z,4.10
2019-02-23T00:52:23.198Z,3.87
2019-02-23T00:54:52.124Z,4.37
2019-02-23T00:57:21.097Z,3.93
2019-02-23T00:59:50.029Z,3.73
2019-02-23T01:02:18.919Z,5.17
2019-02-23T01:04:47.838Z,4.70
2019-02-23T01:07:16.711Z,4.83
2019-02-23T01:09:45.585Z,5.33
2019-02-23T01:12:14.511Z,5.57
2019-02-23T01:14:43.809Z,5.30
2019-02-23T01:17:12.728Z,5.53
2019-02-23T01:19:47.812Z,6.50
2019-02-23T01:22:12.173Z,29.50
2019-02-23T01:24:41.063Z,12.37
2019-02-23T01:27:09.983Z,18.80
2019-02-23T01:29:38.858Z,16.03
2019-02-23T01:32:07.791Z,11.13
2019-02-23T01:34:36.664Z,10.53
2019-02-23T01:37:05.603Z,8.77
2019-02-23T01:39:34.608Z,13.63
2019-02-23T01:42:03.530Z,13.23
2019-02-23T01:44:32.406Z,7.60
2019-02-23T01:47:01.329Z,8.27
2019-02-23T01:49:30.308Z,9.83
2019-02-23T01:51:59.243Z,6.53
2019-02-23T01:54:28.116Z,4.80
2019-02-23T01:56:57.056Z,8.70
2019-02-23T01:59:25.943Z,4.90
2019-02-23T02:01:54.870Z,6.73
2019-02-23T02:04:23.762Z,5.23
2019-02-23T02:06:52.689Z,5.60
2019-02-23T02:09:21.864Z,4.90
2019-02-23T02:11:50.823Z,4.77
2019-02-23T02:14:19.761Z,4.67
2019-02-23T02:16:48.705Z,4.93
2019-02-23T02:19:17.580Z,4.33
2019-02-23T02:21:46.463Z,4.50
2019-02-23T02:24:15.387Z,4.50
2019-02-23T02:26:44.269Z,4.33
2019-02-23T02:29:13.183Z,4.33
2019-02-23T02:31:42.483Z,4.30
2019-02-23T02:34:13.504Z,4.80
2019-02-23T02:36:42.382Z,4.63
2019-02-23T02:39:12.893Z,4.10
2019-02-23T02:41:41.775Z,4.80
2019-02-23T02:44:10.702Z,4.83
2019-02-23T02:46:39.575Z,4.63
2019-02-23T02:49:08.691Z,4.30
2019-02-23T02:51:38.141Z,4.80
2019-02-23T02:54:07.058Z,3.80
2019-02-23T02:56:35.939Z,4.17
2019-02-23T02:59:04.862Z,4.07
2019-02-23T03:01:33.749Z,3.83
2019-02-23T03:04:02.670Z,4.10
2019-02-23T03:06:31.533Z,3.77
2019-02-23T03:09:00.466Z,3.53
2019-02-23T03:11:29.738Z,3.70
2019-02-23T03:13:58.656Z,4.63
2019-02-23T03:16:27.585Z,4.37
2019-02-23T03:18:56.626Z,4.30
2019-02-23T03:21:25.516Z,3.97
2019-02-23T03:23:54.461Z,4.87
2019-02-23T03:26:23.333Z,4.23
2019-02-23T03:28:52.256Z,4.53
2019-02-23T03:31:21.136Z,4.33
2019-02-23T03:33:50.185Z,4.30
2019-02-23T03:36:19.072Z,4.47
2019-02-23T03:38:47.961Z,5.27
2019-02-23T03:41:16.958Z,4.33
2019-02-23T03:43:45.816Z,4.10
2019-02-23T03:46:14.818Z,4.10
2019-02-23T03:48:43.715Z,4.07
2019-02-23T03:51:12.758Z,4.50
2019-02-23T03:53:41.638Z,3.83
2019-02-23T03:56:10.554Z,4.00
2019-02-23T03:58:39.433Z,4.00
2019-02-23T04:01:08.350Z,4.30
2019-02-23T04:03:37.228Z,4.17
2019-02-23T04:06:06.144Z,3.70
2019-02-23T04:08:35.023Z,3.77
2019-02-23T04:11:03.962Z,4.30
2019-02-23T04:13:32.838Z,4.43
2019-02-23T04:16:01.808Z,4.50
2019-02-23T04:18:30.744Z,4.00
2019-02-23T04:21:02.031Z,4.40
2019-02-23T04:23:30.217Z,4.50
2019-02-23T04:25:59.117Z,3.97
2019-02-23T04:28:27.996Z,4.40
2019-02-23T04:30:57.001Z,4.63
2019-02-23T04:33:25.892Z,4.13
2019-02-23T04:35:54.985Z,4.57
2019-02-23T04:38:23.977Z,3.97
2019-02-23T04:40:53.071Z,4.63
2019-02-23T04:43:22.064Z,4.40
2019-02-23T04:45:51.159Z,4.97
2019-02-23T04:48:20.150Z,4.20
2019-02-23T04:50:49.244Z,4.83
2019-02-23T04:53:18.126Z,4.53
2019-02-23T04:55:47.126Z,3.60
2019-02-23T04:58:16.016Z,4.00
2019-02-23T05:00:45.088Z,4.50
2019-02-23T05:03:14.207Z,4.47
2019-02-23T05:05:43.298Z,4.10
2019-02-23T05:08:12.188Z,3.87
2019-02-23T05:10:41.283Z,4.60
2019-02-23T05:13:10.379Z,3.87
2019-02-23T05:15:39.474Z,4.00
2019-02-23T05:18:08.568Z,4.43
2019-02-23T05:20:37.661Z,4.27
2019-02-23T05:23:06.863Z,4.10
2019-02-23T05:25:35.747Z,4.23
2019-02-23T05:28:04.740Z,4.37
2019-02-23T05:30:33.733Z,4.20
2019-02-23T05:33:02.730Z,4.47
2019-02-23T05:35:31.718Z,4.20
2019-02-23T05:38:00.764Z,4.53
2019-02-23T05:40:29.803Z,4.60
2019-02-23T05:43:01.216Z,4.70
2019-02-23T05:45:29.527Z,4.30
2019-02-23T05:47:58.520Z,4.13
2019-02-23T05:50:27.401Z,5.17
2019-02-23T05:52:56.401Z,5.03
2019-02-23T05:55:25.396Z,4.57
2019-02-23T05:57:54.489Z,4.93
2019-02-23T06:00:23.483Z,4.73
2019-02-23T06:02:52.474Z,4.47
2019-02-23T06:05:21.463Z,4.53
2019-02-23T06:07:50.457Z,4.57
2019-02-23T06:10:19.332Z,5.37
2019-02-23T06:12:48.440Z,5.27
2019-02-23T06:15:17.534Z,4.90
2019-02-23T06:17:46.529Z,5.03
2019-02-23T06:20:15.518Z,5.13
2019-02-23T06:22:46.682Z,5.70
2019-02-23T06:25:14.976Z,6.30
2019-02-23T06:27:43.899Z,6.40
2019-02-23T06:30:13.585Z,5.67
2019-02-23T06:32:42.501Z,6.97
2019-02-23T06:35:11.403Z,5.83
2019-02-23T06:37:40.319Z,5.53
2019-02-23T06:40:12.423Z,5.80
2019-02-23T06:42:41.331Z,5.80
2019-02-23T06:45:13.687Z,6.17
2019-02-23T06:47:42.597Z,5.83
2019-02-23T06:50:11.475Z,6.33
2019-02-23T06:52:40.392Z,6.53
2019-02-23T06:55:09.279Z,6.93
2019-02-23T06:57:38.165Z,6.43
2019-02-23T07:00:12.662Z,6.67
2019-02-23T07:02:41.539Z,6.30
2019-02-23T07:05:10.469Z,6.03
2019-02-23T07:07:39.363Z,6.50
2019-02-23T07:10:11.501Z,5.33
2019-02-23T07:12:40.390Z,6.00
2019-02-23T07:15:10.821Z,6.57
2019-02-23T07:17:39.711Z,7.23
2019-02-23T07:20:10.340Z,6.63
2019-02-23T07:22:39.221Z,6.73
2019-02-23T07:25:09.634Z,7.00
2019-02-23T07:27:38.513Z,7.20
2019-02-23T07:30:12.500Z,8.10
2019-02-23T07:32:41.389Z,8.70
2019-02-23T07:35:10.301Z,8.07
2019-02-23T07:37:39.176Z,8.60
2019-02-23T07:40:13.871Z,7.30
2019-02-23T07:42:42.782Z,7.17
2019-02-23T07:45:12.013Z,7.73
2019-02-23T07:47:40.892Z,7.93
2019-02-23T07:50:12.513Z,7.60
2019-02-23T07:52:41.392Z,7.93
2019-02-23T07:55:10.355Z,7.57
2019-02-23T07:57:39.234Z,8.27
2019-02-23T08:00:13.028Z,8.10
2019-02-23T08:02:41.879Z,8.03
2019-02-23T08:05:11.197Z,7.53
2019-02-23T08:07:40.188Z,7.90
2019-02-23T08:10:11.293Z,8.63
2019-02-23T08:12:40.162Z,7.43
2019-02-23T08:15:10.479Z,8.00
2019-02-23T08:17:39.358Z,8.30
2019-02-23T08:20:13.345Z,7.80
2019-02-23T08:22:42.242Z,7.77
2019-02-23T08:25:12.971Z,8.43
2019-02-23T08:27:41.857Z,7.67
2019-02-23T08:30:13.386Z,8.47
2019-02-23T08:32:42.275Z,8.33
2019-02-23T08:35:11.222Z,7.90
2019-02-23T08:37:40.101Z,7.97
2019-02-23T08:40:14.348Z,7.87
2019-02-23T08:42:43.216Z,7.50
2019-02-23T08:45:12.148Z,7.93
2019-02-23T08:47:41.016Z,8.10
2019-02-23T08:50:14.550Z,7.63
2019-02-23T08:52:49.275Z,7.93
2019-02-23T08:55:13.996Z,7.57
2019-02-23T08:57:42.868Z,8.00
2019-02-23T09:00:16.751Z,7.33
2019-02-23T09:02:45.630Z,8.37
2019-02-23T09:05:15.078Z,7.73
2019-02-23T09:07:43.957Z,8.40
2019-02-23T09:10:14.736Z,8.23
2019-02-23T09:12:43.626Z,7.70
2019-02-23T09:15:12.845Z,7.53
2019-02-23T09:17:41.727Z,8.77
2019-02-23T09:20:12.149Z,8.37
2019-02-23T09:22:41.026Z,8.37
2019-02-23T09:25:11.244Z,8.80
2019-02-23T09:27:40.140Z,10.00
2019-02-23T09:30:13.821Z,10.33
2019-02-23T09:32:42.691Z,11.33
2019-02-23T09:35:11.601Z,9.43
2019-02-23T09:37:40.478Z,8.40
2019-02-23T09:40:14.668Z,8.30
2019-02-23T09:42:43.545Z,8.10
2019-02-23T09:45:13.077Z,8.03
2019-02-23T09:47:41.951Z,8.00
2019-02-23T09:50:10.869Z,6.83
2019-02-23T09:52:39.774Z,7.00
2019-02-23T09:55:09.505Z,7.23
2019-02-23T09:57:38.387Z,7.63
2019-02-23T10:00:10.236Z,7.27
2019-02-23T10:02:39.153Z,7.10
2019-02-23T10:05:08.237Z,7.40
2019-02-23T10:07:37.153Z,7.53
2019-02-23T10:10:08.833Z,7.10
2019-02-23T10:12:37.754Z,7.30
2019-02-23T10:15:09.180Z,6.87
2019-02-23T10:17:38.099Z,6.80
2019-02-23T10:20:12.057Z,7.43
2019-02-23T10:22:40.983Z,7.00
2019-02-23T10:25:09.853Z,7.70
2019-02-23T10:27:38.878Z,8.33
2019-02-23T10:30:16.447Z,10.10
2019-02-23T10:32:45.884Z,9.23
2019-02-23T10:35:14.956Z,10.63
2019-02-23T10:37:43.886Z,11.57
2019-02-23T10:40:13.364Z,12.17
2019-02-23T10:42:42.337Z,12.63
2019-02-23T10:45:12.422Z,12.20
2019-02-23T10:47:41.343Z,12.33
2019-02-23T10:50:11.819Z,12.27
2019-02-23T10:52:40.742Z,13.57
2019-02-23T10:55:12.072Z,13.10
2019-02-23T10:57:41.102Z,13.23
2019-02-23T11:00:22.270Z,12.60
2019-02-23T11:02:51.533Z,13.13
2019-02-23T11:05:20.986Z,11.70
2019-02-23T11:07:49.934Z,10.90
2019-02-23T11:10:19.740Z,10.30
2019-02-23T11:12:48.734Z,9.80
2019-02-23T11:15:19.414Z,9.67
2019-02-23T11:17:48.365Z,10.83
2019-02-23T11:20:17.967Z,9.17
2019-02-23T11:22:46.926Z,9.30
2019-02-23T11:25:15.958Z,9.87
2019-02-23T11:27:44.940Z,9.70
2019-02-23T11:30:15.483Z,10.30
2019-02-23T11:32:44.429Z,10.77
2019-02-23T11:35:17.177Z,12.43
2019-02-23T11:37:45.477Z,12.83
2019-02-23T11:40:15.695Z,14.43
2019-02-23T11:42:44.829Z,15.93
2019-02-23T11:45:13.766Z,15.73
2019-02-23T11:47:42.795Z,15.77
2019-02-23T11:50:15.684Z,12.93
2019-02-23T11:52:44.661Z,12.60
2019-02-23T11:55:13.672Z,11.47
2019-02-23T11:57:42.625Z,11.30
2019-02-23T12:00:14.005Z,11.93
2019-02-23T12:02:51.986Z,13.40
2019-02-23T12:05:13.612Z,11.27
2019-02-23T12:07:42.581Z,9.87
2019-02-23T12:10:16.296Z,8.63
2019-02-23T12:12:45.277Z,7.33
2019-02-23T12:15:14.220Z,7.53
2019-02-23T12:17:43.179Z,7.50
2019-02-23T12:20:12.163Z,7.30
2019-02-23T12:22:41.074Z,7.30
2019-02-23T12:25:13.025Z,7.23
2019-02-23T12:27:40.993Z,6.60
2019-02-23T12:30:11.593Z,6.93
2019-02-23T12:32:40.539Z,7.30
2019-02-23T12:35:11.088Z,7.47
2019-02-23T12:37:40.041Z,7.30
2019-02-23T12:40:10.418Z,7.10
2019-02-23T12:42:39.399Z,7.23
2019-02-23T12:45:10.862Z,7.70
2019-02-23T12:47:39.802Z,7.23
2019-02-23T12:50:11.001Z,7.40
2019-02-23T12:52:40.051Z,7.73
2019-02-23T12:55:11.159Z,8.13
2019-02-23T12:57:40.063Z,7.00
2019-02-23T13:00:14.394Z,7.87
2019-02-23T13:02:43.281Z,7.60
2019-02-23T13:05:12.279Z,7.43
2019-02-23T13:07:41.185Z,8.10
2019-02-23T13:10:11.974Z,8.47
2019-02-23T13:13:05.006Z,9.10
2019-02-23T13:15:45.979Z,8.40
2019-02-23T13:18:29.841Z,8.50
2019-02-23T13:21:19.760Z,8.30
2019-02-23T13:24:09.790Z,8.37
2019-02-23T13:27:02.663Z,7.80
2019-02-23T13:29:46.385Z,8.43
2019-02-23T13:32:37.843Z,8.00
2019-02-23T13:35:32.261Z,8.37
2019-02-23T13:38:20.504Z,8.13
2019-02-23T13:41:21.005Z,8.33
2019-02-23T13:43:55.640Z,8.30
2019-02-23T13:46:51.633Z,7.77
2019-02-23T13:49:43.019Z,8.23
2019-02-23T13:52:30.196Z,8.10
2019-02-23T13:55:26.297Z,8.47
2019-02-23T13:58:03.872Z,8.47
2019-02-23T14:00:58.569Z,8.47
2019-02-23T14:03:53.521Z,8.60
2019-02-23T14:06:35.813Z,8.70
2019-02-23T14:09:40.914Z,8.87
2019-02-23T14:12:15.991Z,8.13
2019-02-23T14:15:08.532Z,8.47
2019-02-23T14:17:55.140Z,9.03
2019-02-23T14:20:36.033Z,8.77
2019-02-23T14:23:25.816Z,8.87
2019-02-23T14:26:17.276Z,8.60
2019-02-23T14:29:01.211Z,8.63
2019-02-23T14:31:33.220Z,9.30
2019-02-23T14:34:10.741Z,9.87
2019-02-23T14:36:51.191Z,9.30
2019-02-23T14:39:25.808Z,10.03
2019-02-23T14:41:57.816Z,10.43
2019-02-23T14:44:50.913Z,9.57
2019-02-23T14:47:34.960Z,10.03
2019-02-23T14:50:07.153Z,12.73
2019-02-23T14:52:41.858Z,14.87
2019-02-23T14:55:22.616Z,13.83
2019-02-23T14:58:22.261Z,11.53
2019-02-23T15:01:06.229Z,13.83
2019-02-23T15:04:05.511Z,13.07
2019-02-23T15:06:49.583Z,11.83
2019-02-23T15:09:48.145Z,11.43
2019-02-23T15:12:25.816Z,10.87
2019-02-23T15:15:03.417Z,10.03
2019-02-23T15:17:38.123Z,10.30
2019-02-23T15:20:40.376Z,9.90
2019-02-23T15:23:28.852Z,10.40
2019-02-23T15:26:31.111Z,9.80
2019-02-23T15:29:09.051Z,11.57
2019-02-23T15:31:59.123Z,10.47
2019-02-23T15:34:49.344Z,11.50
2019-02-23T15:37:23.979Z,11.30
2019-02-23T15:40:05.213Z,10.60
2019-02-23T15:42:37.672Z,10.53
2019-02-23T15:45:43.020Z,11.33
2019-02-23T15:48:30.555Z,10.37
2019-02-23T15:51:02.989Z,11.40
2019-02-23T15:53:32.114Z,11.17
2019-02-23T15:56:01.507Z,11.53
2019-02-23T15:58:30.600Z,12.07
2019-02-23T16:00:59.902Z,12.20
2019-02-23T16:03:29.071Z,13.00
2019-02-23T16:05:58.196Z,12.67
2019-02-23T16:08:27.407Z,12.60
2019-02-23T16:10:56.713Z,12.63
2019-02-23T16:13:25.908Z,13.03
2019-02-23T16:15:55.181Z,11.30
2019-02-23T16:18:24.396Z,11.63
2019-02-23T16:20:53.798Z,11.13
2019-02-23T16:23:34.640Z,10.67
2019-02-23T16:25:53.674Z,11.53
2019-02-23T16:28:22.813Z,11.50
2019-02-23T16:30:52.113Z,11.80
2019-02-23T16:33:21.330Z,11.70
2019-02-23T16:35:50.609Z,11.60
2019-02-23T16:38:19.776Z,11.43
2019-02-23T16:40:50.378Z,12.17
2019-02-23T16:43:19.622Z,11.23
2019-02-23T16:45:49.024Z,13.60
2019-02-23T16:48:18.232Z,12.00
2019-02-23T16:50:47.724Z,11.77
2019-02-23T16:53:16.851Z,11.30
2019-02-23T16:55:50.816Z,10.80
2019-02-23T16:58:16.754Z,10.37
2019-02-23T17:00:46.069Z,10.60
2019-02-23T17:03:15.151Z,11.47
2019-02-23T17:05:44.340Z,11.47
2019-02-23T17:08:13.355Z,10.80
2019-02-23T17:10:42.894Z,10.67
2019-02-23T17:13:11.828Z,11.30
2019-02-23T17:15:40.924Z,11.33
2019-02-23T17:18:10.053Z,10.27
2019-02-23T17:20:39.117Z,11.60
2019-02-23T17:23:08.232Z,11.50
2019-02-23T17:25:37.403Z,12.07
2019-02-23T17:28:07.230Z,11.00
2019-02-23T17:30:36.430Z,11.00
2019-02-23T17:33:05.526Z,11.03
2019-02-23T17:35:37.591Z,11.30
2019-02-23T17:38:15.721Z,11.70
2019-02-23T17:40:37.500Z,10.57
2019-02-23T17:43:10.197Z,11.20
2019-02-23T17:45:39.138Z,12.10
2019-02-23T17:48:08.284Z,12.77
2019-02-23T17:50:37.288Z,11.93
2019-02-23T17:53:08.194Z,11.13
2019-02-23T17:55:37.301Z,11.87
2019-02-23T17:58:06.485Z,11.53
2019-02-23T18:00:35.583Z,11.30
2019-02-23T18:03:04.798Z,12.30
2019-02-23T18:05:34.196Z,12.93
2019-02-23T18:08:03.506Z,13.97
2019-02-23T18:10:32.616Z,11.67
2019-02-23T18:13:01.873Z,11.30
2019-02-23T18:15:30.967Z,10.27
2019-02-23T18:18:00.175Z,11.07
2019-02-23T18:20:29.178Z,11.13
2019-02-23T18:22:58.242Z,10.80
2019-02-23T18:25:27.453Z,10.53
2019-02-23T18:27:56.542Z,10.87
2019-02-23T18:30:25.744Z,12.67
2019-02-23T18:32:58.867Z,10.93
2019-02-23T18:35:30.361Z,12.23
2019-02-23T18:38:02.212Z,12.57
2019-02-23T18:40:32.368Z,12.37
2019-02-23T18:43:02.657Z,11.97
2019-02-23T18:45:34.317Z,10.97
2019-02-23T18:48:03.419Z,11.33
2019-02-23T18:50:33.620Z,11.83
2019-02-23T18:53:06.814Z,10.87
2019-02-23T18:55:41.017Z,10.67
2019-02-23T18:58:06.860Z,11.30
2019-02-23T19:00:38.005Z,11.97
2019-02-23T19:03:11.851Z,10.67
2019-02-23T19:05:49.718Z,10.60
2019-02-23T19:08:13.283Z,9.73
2019-02-23T19:10:42.486Z,10.23
2019-02-23T19:13:13.250Z,9.73
2019-02-23T19:15:46.809Z,9.43
2019-02-23T19:18:18.889Z,10.27
2019-02-23T19:20:51.415Z,9.90
2019-02-23T19:23:24.934Z,10.00
2019-02-23T19:25:55.982Z,9.00
2019-02-23T19:28:28.560Z,8.90
2019-02-23T19:30:59.812Z,8.77
2019-02-23T19:33:31.185Z,8.67
2019-02-23T19:36:02.047Z,9.27
2019-02-23T19:38:31.401Z,9.30
2019-02-23T19:41:00.392Z,9.73
2019-02-23T19:43:29.279Z,9.33
2019-02-23T19:45:58.271Z,9.97
2019-02-23T19:48:27.270Z,10.77
2019-02-23T19:50:59.329Z,10.30
2019-02-23T19:53:29.730Z,10.60
2019-02-23T19:55:59.602Z,9.97
2019-02-23T19:58:29.482Z,9.83
2019-02-23T20:00:58.677Z,9.20
2019-02-23T20:03:29.420Z,9.80
2019-02-23T20:05:58.507Z,10.37
2019-02-23T20:08:27.597Z,9.07
2019-02-23T20:10:56.692Z,9.17
2019-02-23T20:13:25.984Z,9.40
2019-02-23T20:15:54.984Z,8.90
2019-02-23T20:18:24.078Z,9.00
2019-02-23T20:20:54.892Z,8.63
2019-02-23T20:23:24.110Z,9.37
2019-02-23T20:25:54.228Z,8.70
2019-02-23T20:28:29.153Z,8.20
2019-02-23T20:30:58.260Z,9.07
2019-02-23T20:33:27.351Z,8.47
2019-02-23T20:35:56.443Z,8.23
2019-02-23T20:38:26.933Z,9.77
2019-02-23T20:40:57.773Z,8.97
2019-02-23T20:43:28.023Z,8.60
2019-02-23T20:45:57.430Z,8.77
2019-02-23T20:48:27.753Z,9.73
2019-02-23T20:50:56.950Z,9.00
2019-02-23T20:53:26.046Z,9.60
2019-02-23T20:55:55.160Z,8.80
2019-02-23T20:58:24.759Z,9.40
2019-02-23T21:00:54.724Z,9.47
2019-02-23T21:03:43.820Z,8.33
2019-02-23T21:06:13.543Z,8.60
2019-02-23T21:08:42.687Z,8.73
2019-02-23T21:11:12.540Z,8.60
2019-02-23T21:13:43.411Z,9.00
2019-02-23T21:16:12.457Z,9.07
2019-02-23T21:18:41.553Z,8.73
2019-02-23T21:21:10.558Z,9.63
2019-02-23T21:23:39.655Z,9.37
2019-02-23T21:26:08.748Z,9.07
2019-02-23T21:28:37.844Z,8.90
2019-02-23T21:31:06.737Z,9.17
2019-02-23T21:33:35.826Z,10.07
2019-02-23T21:36:04.922Z,8.50
2019-02-23T21:38:34.015Z,9.77
2019-02-23T21:41:03.116Z,9.20
2019-02-23T21:43:32.206Z,9.40
2019-02-23T21:46:01.200Z,9.00
2019-02-23T21:48:30.295Z,9.07
2019-02-23T21:50:59.387Z,9.27
2019-02-23T21:53:28.377Z,8.97
2019-02-23T21:55:57.484Z,9.10
2019-02-23T21:58:26.650Z,8.67
2019-02-23T22:00:55.661Z,9.07
2019-02-23T22:03:24.757Z,9.27
2019-02-23T22:05:53.853Z,9.50
2019-02-23T22:08:23.356Z,9.80
2019-02-23T22:10:52.560Z,9.53
2019-02-23T22:13:21.850Z,10.13
2019-02-23T22:15:50.943Z,9.43
2019-02-23T22:18:19.936Z,9.37
2019-02-23T22:20:49.033Z,9.03
2019-02-23T22:23:18.135Z,9.33
2019-02-23T22:25:47.139Z,9.47
2019-02-23T22:28:16.209Z,9.50
2019-02-23T22:30:45.204Z,9.77
2019-02-23T22:33:14.195Z,8.67
2019-02-23T22:35:43.216Z,8.57
2019-02-23T22:38:12.386Z,9.37
2019-02-23T22:40:41.366Z,9.77
2019-02-23T22:43:10.370Z,8.57
2019-02-23T22:45:39.363Z,9.30
2019-02-23T22:48:08.453Z,14.20
2019-02-23T22:50:37.549Z,18.33
2019-02-23T22:53:06.541Z,16.30
2019-02-23T22:55:35.645Z,16.30
2019-02-23T22:58:04.730Z,13.40
2019-02-23T23:00:35.345Z,11.30
2019-02-23T23:03:04.242Z,11.87
2019-02-23T23:05:33.345Z,9.97
2019-02-23T23:08:02.344Z,9.87
2019-02-23T23:10:31.330Z,9.17
2019-02-23T23:13:00.317Z,13.10
2019-02-23T23:15:29.427Z,10.80
2019-02-23T23:17:58.510Z,9.80
2019-02-23T23:20:28.311Z,12.53
2019-02-23T23:22:57.418Z,20.53
2019-02-23T23:25:26.409Z,17.30
2019-02-23T23:27:55.502Z,12.53
2019-02-23T23:30:24.494Z,11.63
2019-02-23T23:32:53.483Z,10.47
2019-02-23T23:35:22.583Z,11.10
2019-02-23T23:37:51.681Z,10.17
2019-02-23T23:40:20.770Z,10.73
2019-02-23T23:42:57.793Z,10.50
2019-02-23T23:45:20.393Z,10.93
2019-02-23T23:47:49.490Z,11.73
2019-02-23T23:50:18.584Z,11.77
2019-02-23T23:52:47.682Z,11.00
2019-02-23T23:55:16.770Z,10.80
2019-02-23T23:57:45.660Z,16.33
